Thomasville, Pennsylvania
Current Conditions -  °F | °C
As of 11:53 PM on Saturday 22 Nov 2014 (Local Time) from KTHV Reporting Station
Broken Clouds Broken Clouds  
Wind Chill: 39°   Ceiling: 11000
Heat Index: 43°   Visibility: 10mi
Dew Point: 17°   Wind: 7mph
Humidity: 35%   Direction: 210°SSW
Pressure: 30.2"   Gusts: NA
Location:  39.93°N, 76.85°W
Report Text: KTHV 230453Z AUTO 21006KT 10SM BKN110 06/M08 A3020 RMK AO2 SLP231 T00611083 400671111
Loading
Personal Weather Stations






























Interactive Weather Map New forecast layout! Learn more

10-Day Weather Forecast

Advertisements
Track Severe Weather on mobile